Terminal Aerodrome Forecast
Issued by NWS Sioux Falls, SD

Home | Current Version | Previous Version | Text Only | Print | Product List | Glossary On
Versions: 1 2 3 4 5 6 7 8 9 10 11 12 13 14
903
FTUS43 KFSD 260520
TAFHON
TAF
KHON 260520Z 2606/2706 14007KT P6SM OVC008
     FM261000 09005KT 6SM BR OVC005
     FM261600 06005KT P6SM OVC015
     FM262000 02005KT P6SM BKN025
     FM262300 02005KT P6SM SCT025 BKN150=

USA.gov is the U.S. government's official web portal to all federal, state and local government web resources and services.